Time;durP1;ratioP1;P1;durP2;ratioP2;P2;SDS_P1;SDS_P2;PMS_P1;PMS_P2;Temp;Humidity;BMP_temperature;BMP_pressure;BME280_temperature;BME280_humidity;BME280_pressure;Samples;Min_cycle;Max_cycle;Signal;HPM_P1;HPM_P2
2022/09/27 00:00:48;;;;;;;5.47;1.40;;;;;;;19.42;67.13;101008.84;2095273;28;20077;-75
2022/09/27 00:02:11;;;;;;;2.45;1.35;;;;;;;19.42;67.34;101009.72;2095255;28;20049;-75
2022/09/27 00:03:34;;;;;;;1.75;1.20;;;;;;;19.41;67.23;101015.09;2095126;28;20081;-75
2022/09/27 00:04:57;;;;;;;1.80;1.33;;;;;;;19.42;67.37;101009.72;2095744;28;20044;-75
2022/09/27 00:06:23;;;;;;;3.70;1.55;;;;;;;19.44;67.31;101017.72;2105193;28;20097;-75
2022/09/27 00:07:45;;;;;;;2.67;1.30;;;;;;;19.41;67.49;101015.09;2099250;28;20029;-75
2022/09/27 00:09:08;;;;;;;4.68;1.83;;;;;;;19.43;67.47;101007.91;2096616;28;20124;-75
2022/09/27 00:10:30;;;;;;;1.45;1.23;;;;;;;19.41;67.57;101013.31;2096809;28;20049;-75
2022/09/27 00:11:53;;;;;;;2.60;1.50;;;;;;;19.39;67.46;101004.41;2096623;28;20083;-75
2022/09/27 00:13:14;;;;;;;2.40;1.70;;;;;;;19.38;67.45;101004.44;2096655;28;20048;-75
2022/09/27 00:14:37;;;;;;;2.38;1.63;;;;;;;19.35;67.59;101004.50;2096500;28;20044;-75
2022/09/27 00:16:04;;;;;;;2.42;1.67;;;;;;;19.33;67.53;100995.59;2096734;28;20048;-75
2022/09/27 00:17:27;;;;;;;2.60;1.58;;;;;;;19.31;67.71;100998.28;2099279;28;20048;-75
2022/09/27 00:18:51;;;;;;;2.15;1.50;;;;;;;19.29;68.15;100993.91;2096642;28;20048;-75
2022/09/27 00:20:14;;;;;;;1.92;1.25;;;;;;;19.28;68.31;100997.47;2096697;28;20045;-74
2022/09/27 00:21:37;;;;;;;2.10;1.48;;;;;;;19.30;68.43;100996.53;2096699;28;20051;-75
2022/09/27 00:22:59;;;;;;;4.80;1.77;;;;;;;19.29;68.44;100993.91;2096688;28;20052;-75
2022/09/27 00:24:23;;;;;;;2.63;1.38;;;;;;;19.29;68.52;100992.09;2104778;28;20044;-75
2022/09/27 00:25:57;;;;;;;4.63;1.50;;;;;;;19.31;68.55;100992.94;2099267;28;20476;-75
2022/09/27 00:27:20;;;;;;;2.85;1.40;;;;;;;19.31;68.47;100992.94;2098276;28;20063;-75
2022/09/27 00:28:42;;;;;;;2.25;1.60;;;;;;;19.32;68.68;100985.78;2088122;28;20044;-75
2022/09/27 00:30:06;;;;;;;2.10;1.30;;;;;;;19.34;68.51;100992.03;2085666;28;20063;-75
2022/09/27 00:31:31;;;;;;;2.42;1.33;;;;;;;19.34;68.75;100987.56;2094238;28;20074;-75
2022/09/27 00:32:53;;;;;;;3.10;1.33;;;;;;;19.36;68.60;100988.38;2096656;28;20048;-75
2022/09/27 00:34:20;;;;;;;2.60;1.27;;;;;;;19.40;68.68;100986.56;2099128;28;20080;-75
2022/09/27 00:35:43;;;;;;;2.47;1.40;;;;;;;19.42;68.60;100984.75;2105391;28;20545;-75
2022/09/27 00:37:06;;;;;;;3.78;1.65;;;;;;;19.40;68.62;100986.56;2091035;28;20150;-74
2022/09/27 00:38:27;;;;;;;2.72;1.27;;;;;;;19.39;68.37;100984.78;2094192;28;20047;-75
2022/09/27 00:39:50;;;;;;;2.10;1.33;;;;;;;19.39;68.48;100996.38;2096411;28;20127;-75
2022/09/27 00:41:17;;;;;;;2.35;1.08;;;;;;;19.40;68.53;100991.91;2088315;28;20041;-74
2022/09/27 00:42:40;;;;;;;3.88;1.23;;;;;;;19.40;68.59;100992.81;2103413;28;20061;-74
2022/09/27 00:44:05;;;;;;;3.25;1.30;;;;;;;19.39;68.37;100993.72;2090654;28;20049;-75
2022/09/27 00:45:28;;;;;;;2.53;1.25;;;;;;;19.37;68.39;100992.84;2086307;28;20099;-75
2022/09/27 00:46:59;;;;;;;1.58;1.35;;;;;;;19.36;68.49;100998.25;2093871;28;20505;-75
2022/09/27 00:48:26;;;;;;;2.22;1.40;;;;;;;19.37;68.60;100997.31;2089333;28;20479;-75
2022/09/27 00:49:54;;;;;;;1.98;1.25;;;;;;;19.35;68.77;100992.00;2087009;28;20127;-75
2022/09/27 00:51:17;;;;;;;4.40;1.40;;;;;;;19.35;68.67;100989.31;2103644;28;20040;-75
2022/09/27 00:52:45;;;;;;;1.65;1.38;;;;;;;19.34;68.58;100994.69;2090817;28;20489;-75
2022/09/27 00:54:12;;;;;;;4.65;1.40;;;;;;;19.31;68.71;100986.69;2097166;28;20053;-75
2022/09/27 00:55:39;;;;;;;3.97;1.50;;;;;;;19.29;68.62;100983.19;2088990;28;20045;-74
2022/09/27 00:57:03;;;;;;;1.70;1.50;;;;;;;19.25;68.44;100982.34;2095226;28;20051;-74
2022/09/27 00:58:30;;;;;;;5.13;1.60;;;;;;;19.24;68.79;100987.72;2088235;28;20232;-75
2022/09/27 00:59:58;;;;;;;2.72;1.30;;;;;;;19.24;68.95;100982.34;2086866;28;20402;-74
2022/09/27 01:01:21;;;;;;;3.42;1.38;;;;;;;19.23;69.08;100972.59;2095106;28;20055;-75
2022/09/27 01:02:48;;;;;;;1.73;1.20;;;;;;;19.25;69.02;100976.97;2096379;28;20048;-75
2022/09/27 01:04:14;;;;;;;3.10;1.50;;;;;;;19.22;68.94;100974.38;2088450;28;20049;-74
2022/09/27 01:05:38;;;;;;;4.75;1.48;;;;;;;19.16;68.88;100969.13;2086548;28;20049;-74
2022/09/27 01:07:01;;;;;;;2.25;1.30;;;;;;;19.16;69.16;100971.81;2085892;28;20041;-75
2022/09/27 01:08:23;;;;;;;2.38;1.42;;;;;;;19.19;69.36;100970.84;2088499;28;20102;-74
2022/09/27 01:09:46;;;;;;;1.67;1.40;;;;;;;19.16;69.41;100969.13;2085546;28;20039;-75
2022/09/27 01:11:17;;;;;;;1.77;1.35;;;;;;;19.13;69.17;100965.59;2093731;28;20507;-75
2022/09/27 01:12:53;;;;;;;2.70;1.30;;;;;;;19.07;69.24;100970.16;2089101;28;20051;-74
2022/09/27 01:14:40;;;;;;;3.72;1.70;;;;;;;18.98;69.23;100962.25;2097227;28;20072;-74
2022/09/27 01:16:12;;;;;;;3.97;1.70;;;;;;;18.89;68.97;100959.75;2098930;28;20461;-74
2022/09/27 01:17:47;;;;;;;3.10;1.70;;;;;;;18.84;69.10;100958.91;2097629;28;20144;-74
2022/09/27 01:19:30;;;;;;;1.92;1.63;;;;;;;18.80;69.35;100948.28;2106136;28;20106;-74
2022/09/27 01:21:31;;;;;;;2.28;1.60;;;;;;;18.71;69.38;100939.47;2090347;28;20497;-74
2022/09/27 01:23:04;;;;;;;2.60;1.60;;;;;;;18.68;69.62;100936.88;2098847;28;20498;-73
2022/09/27 01:24:48;;;;;;;2.90;1.75;;;;;;;18.65;69.63;100941.34;2089371;28;20603;-74
2022/09/27 01:26:15;;;;;;;2.83;1.50;;;;;;;18.60;69.93;100933.41;2090405;28;20489;-74
2022/09/27 01:28:09;;;;;;;4.03;2.00;;;;;;;18.56;69.89;100937.03;2086639;28;20056;-74
2022/09/27 01:29:42;;;;;;;2.92;1.45;;;;;;;18.47;69.84;100926.44;2098657;28;20044;-74
2022/09/27 01:31:13;;;;;;;2.67;1.45;;;;;;;18.43;69.68;100923.84;2089468;28;20041;-74
2022/09/27 01:32:47;;;;;;;2.33;1.60;;;;;;;18.49;70.36;100929.09;2087267;28;20076;-74
2022/09/27 01:34:19;;;;;;;2.45;1.58;;;;;;;18.56;70.65;100922.78;2089109;28;20086;-74
2022/09/27 01:35:58;;;;;;;2.03;1.60;;;;;;;18.66;70.69;100917.28;2096028;28;20051;-74
2022/09/27 01:37:25;;;;;;;2.58;1.75;;;;;;;18.74;70.93;100916.28;2090085;28;20140;-74
2022/09/27 01:39:09;;;;;;;2.88;1.45;;;;;;;18.82;71.00;100917.03;2086540;28;20453;-74
2022/09/27 01:40:59;;;;;;;1.92;1.40;;;;;;;18.86;70.98;100916.06;2098576;28;20037;-74
2022/09/27 01:43:04;;;;;;;2.50;1.48;;;;;;;18.91;70.94;100915.09;2098624;28;20131;-75
2022/09/27 01:44:35;;;;;;;1.95;1.40;;;;;;;18.94;71.04;100916.84;2089402;28;20594;-75
2022/09/27 01:46:18;;;;;;;2.78;1.45;;;;;;;18.97;70.90;100912.31;2090380;28;20079;-73
2022/09/27 01:48:12;;;;;;;3.03;1.50;;;;;;;19.00;71.20;100906.03;2098687;28;20044;-74
2022/09/27 01:49:57;;;;;;;3.05;1.65;;;;;;;19.02;71.21;100904.22;2090303;28;20608;-75
2022/09/27 01:51:25;;;;;;;2.70;1.60;;;;;;;19.02;71.33;100899.75;2095103;28;20052;-74
2022/09/27 01:52:54;;;;;;;4.00;1.50;;;;;;;19.05;71.45;100902.38;2096654;28;20491;-75
2022/09/27 01:54:26;;;;;;;4.38;1.50;;;;;;;19.08;71.18;100905.00;2090236;28;20139;-74
2022/09/27 01:56:22;;;;;;;1.55;1.23;;;;;;;19.10;71.16;100904.97;2090286;28;20048;-75
2022/09/27 01:57:55;;;;;;;2.97;1.50;;;;;;;19.14;71.46;100895.09;2096363;28;20464;-75
2022/09/27 01:59:28;;;;;;;2.20;1.73;;;;;;;19.16;71.44;100894.19;2088724;28;20130;-75
2022/09/27 02:01:08;;;;;;;2.78;1.85;;;;;;;19.17;71.47;100895.91;2098442;28;20040;-74
2022/09/27 02:02:36;;;;;;;5.70;1.80;;;;;;;19.21;71.45;100894.97;2088056;28;20045;-74
2022/09/27 02:04:26;;;;;;;2.63;1.40;;;;;;;19.24;71.46;100888.66;2078471;28;20049;-74
2022/09/27 02:06:00;;;;;;;2.65;1.65;;;;;;;19.24;71.32;100876.16;2105604;28;20079;-74
2022/09/27 02:07:49;;;;;;;2.78;1.90;;;;;;;19.26;71.55;100882.38;2098161;28;20369;-74
2022/09/27 02:09:17;;;;;;;2.22;1.50;;;;;;;19.27;71.73;100884.16;2088335;28;20092;-74
2022/09/27 02:11:05;;;;;;;3.25;1.45;;;;;;;19.29;71.75;100887.69;2098548;28;20131;-74
2022/09/27 02:12:32;;;;;;;1.58;1.30;;;;;;;19.32;71.63;100887.63;2090213;28;20060;-75
2022/09/27 02:14:00;;;;;;;3.13;1.70;;;;;;;19.33;71.63;100877.81;2085909;28;20148;-75
2022/09/27 02:15:44;;;;;;;1.73;1.35;;;;;;;19.35;71.80;100873.31;2089564;28;20100;-74
2022/09/27 02:17:38;;;;;;;1.45;1.20;;;;;;;19.39;72.01;100875.91;2081693;28;20477;-74
2022/09/27 02:19:08;;;;;;;2.72;1.40;;;;;;;19.45;71.86;100862.38;2088347;28;20049;-75
2022/09/27 02:20:38;;;;;;;3.35;1.55;;;;;;;19.50;71.83;100873.03;2095444;28;20041;-75
2022/09/27 02:22:11;;;;;;;5.05;1.45;;;;;;;19.53;71.73;100867.63;2096424;28;20048;-75
2022/09/27 02:23:38;;;;;;;2.95;1.50;;;;;;;19.53;71.33;100861.41;2088911;28;20044;-75
2022/09/27 02:25:13;;;;;;;4.57;1.63;;;;;;;19.55;71.40;100864.94;2088699;28;20072;-74
2022/09/27 02:26:42;;;;;;;1.95;1.42;;;;;;;19.59;71.70;100866.63;2087519;28;20391;-75
2022/09/27 02:28:14;;;;;;;2.38;1.60;;;;;;;19.63;71.43;100865.63;2095921;28;20045;-74
2022/09/27 02:29:43;;;;;;;2.47;1.50;;;;;;;19.64;71.33;100856.69;2097153;28;20381;-74
2022/09/27 02:31:06;;;;;;;4.13;1.40;;;;;;;19.63;71.24;100866.53;2088345;28;20082;-74
2022/09/27 02:32:32;;;;;;;3.20;1.50;;;;;;;19.66;71.26;100865.59;2093841;28;20072;-75
2022/09/27 02:34:00;;;;;;;3.03;1.63;;;;;;;19.68;71.45;100866.47;2090024;28;20037;-75
2022/09/27 02:35:30;;;;;;;2.55;1.50;;;;;;;19.68;71.24;100858.41;2086372;28;20048;-74
2022/09/27 02:36:53;;;;;;;2.05;1.30;;;;;;;19.69;71.51;100866.41;2086913;28;20079;-75
2022/09/27 02:38:17;;;;;;;3.10;1.73;;;;;;;19.70;71.57;100867.28;2085088;28;20366;-75
2022/09/27 02:39:45;;;;;;;0.90;0.85;;;;;;;19.70;71.42;100869.97;2094607;28;20090;-74
2022/09/27 02:41:14;;;;;;;3.38;1.67;;;;;;;19.70;71.47;100873.53;2087683;28;20520;-75
2022/09/27 02:42:38;;;;;;;1.98;1.42;;;;;;;19.70;71.45;100867.28;2086692;28;20102;-74
2022/09/27 02:44:06;;;;;;;2.40;1.52;;;;;;;19.71;71.54;100861.91;2093346;28;20135;-74
2022/09/27 02:45:36;;;;;;;3.70;1.60;;;;;;;19.73;71.60;100861.88;2096345;28;20582;-75
2022/09/27 02:47:29;;;;;;;1.75;1.42;;;;;;;19.74;71.40;100859.19;2088440;28;20044;-75
2022/09/27 02:49:04;;;;;;;1.92;1.50;;;;;;;19.75;71.65;100852.03;2089830;28;20090;-74
2022/09/27 02:50:53;;;;;;;2.95;1.48;;;;;;;19.74;71.37;100843.09;2096316;28;20057;-73
2022/09/27 02:52:38;;;;;;;4.43;1.50;;;;;;;19.76;71.38;100845.72;2089719;28;20041;-74
2022/09/27 02:54:15;;;;;;;2.72;1.30;;;;;;;19.74;71.35;100843.09;2088715;28;20061;-75
2022/09/27 02:56:23;;;;;;;1.75;1.38;;;;;;;19.75;71.69;100846.66;2081310;28;20049;-74
2022/09/27 02:58:16;;;;;;;2.13;1.42;;;;;;;19.77;71.53;100864.47;2085385;28;20081;-73
2022/09/27 03:00:06;;;;;;;3.35;1.60;;;;;;;19.76;71.64;100854.66;2098080;28;20487;-73
2022/09/27 03:01:56;;;;;;;2.35;1.27;;;;;;;19.76;71.68;100854.66;2089836;28;20045;-74
2022/09/27 03:03:31;;;;;;;2.78;1.70;;;;;;;19.77;71.78;100852.84;2105733;28;20044;-74
2022/09/27 03:05:01;;;;;;;1.95;1.40;;;;;;;19.80;71.54;100847.44;2089940;28;20536;-74
2022/09/27 03:06:26;;;;;;;3.63;1.85;;;;;;;19.79;71.51;100846.56;2086043;28;20072;-74
2022/09/27 03:07:48;;;;;;;1.67;1.40;;;;;;;19.80;71.54;100842.09;2093310;28;20044;-74
2022/09/27 03:09:18;;;;;;;2.15;1.58;;;;;;;19.79;71.48;100851.91;2087157;28;20533;-74
2022/09/27 03:10:42;;;;;;;2.90;1.50;;;;;;;19.76;71.50;100851.97;2096588;28;20049;-74
2022/09/27 03:12:05;;;;;;;3.63;1.45;;;;;;;19.76;71.46;100854.66;2089749;28;20055;-74
2022/09/27 03:13:28;;;;;;;4.07;1.60;;;;;;;19.74;71.41;100852.94;2087349;28;20049;-73
2022/09/27 03:14:53;;;;;;;4.10;1.60;;;;;;;19.73;71.81;100851.16;2085228;28;20037;-74
2022/09/27 03:16:36;;;;;;;2.47;1.30;;;;;;;19.73;71.92;100848.47;2098089;28;20044;-74
2022/09/27 03:18:20;;;;;;;1.90;1.40;;;;;;;19.76;71.99;100851.09;2098079;28;20056;-74
2022/09/27 03:20:06;;;;;;;3.28;1.48;;;;;;;19.79;71.86;100849.25;2068592;28;20054;-74
2022/09/27 03:21:51;;;;;;;4.50;1.48;;;;;;;19.79;71.91;100851.03;2098044;28;20489;-74
2022/09/27 03:23:15;;;;;;;2.80;1.70;;;;;;;19.79;71.96;100840.31;2087019;28;20138;-74
2022/09/27 03:24:38;;;;;;;3.33;1.80;;;;;;;19.78;71.84;100842.13;2092890;28;20040;-74
2022/09/27 03:26:02;;;;;;;2.15;1.70;;;;;;;19.79;72.11;100840.31;2087057;28;20041;-74
2022/09/27 03:27:29;;;;;;;2.88;1.67;;;;;;;19.78;72.23;100844.78;2094435;28;20102;-74
2022/09/27 03:28:52;;;;;;;2.55;1.15;;;;;;;19.78;72.28;100839.44;2087129;28;20041;-75
2022/09/27 03:30:14;;;;;;;2.25;1.30;;;;;;;19.82;72.24;100832.22;2101029;28;20090;-74
2022/09/27 03:31:38;;;;;;;2.10;1.42;;;;;;;19.85;72.39;100834.84;2089750;28;20094;-74
2022/09/27 03:33:20;;;;;;;3.78;1.75;;;;;;;19.85;72.10;100833.03;2097983;28;20041;-74
2022/09/27 03:34:46;;;;;;;3.15;1.85;;;;;;;19.85;72.28;100849.09;2096054;28;20071;-75
2022/09/27 03:36:11;;;;;;;1.88;1.58;;;;;;;19.88;72.37;100829.41;2086913;28;20152;-74
2022/09/27 03:37:33;;;;;;;3.03;1.73;;;;;;;19.88;72.45;100840.13;2093308;28;20071;-75
2022/09/27 03:38:56;;;;;;;3.30;1.45;;;;;;;19.89;72.37;100834.72;2095134;28;20054;-74
2022/09/27 03:40:17;;;;;;;2.60;1.58;;;;;;;19.90;72.40;100830.25;2086900;28;20087;-74
2022/09/27 03:41:40;;;;;;;2.65;1.40;;;;;;;19.90;72.17;100832.94;2086984;28;20428;-74
2022/09/27 03:43:03;;;;;;;2.78;1.70;;;;;;;19.89;72.23;100828.47;2092784;28;20040;-74
2022/09/27 03:44:27;;;;;;;3.72;1.73;;;;;;;19.89;71.96;100833.84;2087176;28;20079;-74
2022/09/27 03:45:50;;;;;;;2.00;1.52;;;;;;;19.88;72.22;100830.31;2092522;28;20048;-74
2022/09/27 03:47:13;;;;;;;4.32;1.55;;;;;;;19.90;72.03;100835.59;2087057;28;20045;-74
2022/09/27 03:48:36;;;;;;;3.13;1.75;;;;;;;19.90;71.93;100830.25;2079091;28;20049;-75
2022/09/27 03:49:58;;;;;;;1.90;1.70;;;;;;;19.90;72.16;100831.13;2082277;28;20044;-74
2022/09/27 03:51:23;;;;;;;2.63;1.48;;;;;;;19.92;71.98;100824.88;2095004;28;20460;-75
2022/09/27 03:52:46;;;;;;;2.10;1.83;;;;;;;19.90;71.96;100835.59;2087198;28;20049;-74
2022/09/27 03:54:08;;;;;;;3.00;1.60;;;;;;;19.92;72.05;100841.81;2092803;28;20147;-74
2022/09/27 03:55:31;;;;;;;5.00;1.70;;;;;;;19.92;71.92;100832.91;2086913;28;20041;-74
2022/09/27 03:56:54;;;;;;;2.13;1.60;;;;;;;19.90;72.27;100839.16;2092928;28;20052;-74
2022/09/27 03:58:16;;;;;;;2.90;1.38;;;;;;;19.90;71.93;100831.13;2086990;28;20064;-75
2022/09/27 03:59:39;;;;;;;5.78;1.75;;;;;;;19.89;71.97;100828.47;2086888;28;20394;-74
2022/09/27 04:01:20;;;;;;;2.30;1.23;;;;;;;19.89;72.12;100832.03;2106241;28;20098;-74
2022/09/27 04:02:49;;;;;;;2.92;1.30;;;;;;;19.90;72.39;100831.13;2089454;28;20055;-74
2022/09/27 04:04:19;;;;;;;3.95;1.50;;;;;;;19.93;72.36;100838.22;2103488;28;20063;-74
2022/09/27 04:05:42;;;;;;;1.77;1.20;;;;;;;19.94;72.23;100840.00;2089565;28;20095;-74
2022/09/27 04:07:12;;;;;;;2.30;1.63;;;;;;;19.99;72.36;100834.53;2085878;28;20051;-74
2022/09/27 04:08:35;;;;;;;4.55;1.65;;;;;;;19.99;72.12;100838.09;2084897;28;20069;-74
2022/09/27 04:09:57;;;;;;;3.00;1.55;;;;;;;19.98;72.03;100833.66;2084446;28;20040;-74
2022/09/27 04:11:22;;;;;;;3.38;1.42;;;;;;;19.99;72.21;100842.56;2092682;28;20512;-74
2022/09/27 04:12:44;;;;;;;1.73;1.40;;;;;;;20.01;72.20;100835.41;2087236;28;20045;-75
2022/09/27 04:14:07;;;;;;;2.30;1.42;;;;;;;20.02;72.20;100840.69;2100837;28;20048;-74
2022/09/27 04:15:38;;;;;;;2.88;1.35;;;;;;;20.02;72.18;100835.34;2089339;28;20064;-74
2022/09/27 04:17:20;;;;;;;4.20;1.63;;;;;;;20.03;72.30;100833.53;2106224;28;20080;-75
2022/09/27 04:19:06;;;;;;;2.35;1.48;;;;;;;20.06;72.39;100831.69;2097605;28;20044;-74
2022/09/27 04:20:32;;;;;;;2.03;1.42;;;;;;;20.10;72.29;100838.72;2095400;28;20442;-74
2022/09/27 04:21:59;;;;;;;2.40;1.35;;;;;;;20.15;72.31;100833.28;2095531;28;20059;-74
2022/09/27 04:23:24;;;;;;;2.35;1.45;;;;;;;20.18;72.29;100836.78;2095642;28;20075;-74
2022/09/27 04:24:47;;;;;;;4.50;1.30;;;;;;;20.18;72.25;100834.09;2087279;28;20128;-74
2022/09/27 04:26:21;;;;;;;3.55;1.67;;;;;;;20.20;72.30;100834.94;2087237;28;20481;-75
2022/09/27 04:27:50;;;;;;;4.32;1.70;;;;;;;20.24;72.18;100843.78;2093648;28;20087;-74
2022/09/27 04:29:14;;;;;;;2.25;1.40;;;;;;;20.22;72.09;100834.88;2087164;28;20048;-74
2022/09/27 04:30:42;;;;;;;3.70;1.40;;;;;;;20.25;72.28;100841.09;2086447;28;20041;-74
2022/09/27 04:32:08;;;;;;;2.65;1.27;;;;;;;20.25;72.21;100841.09;2101479;28;20040;-74
2022/09/27 04:33:54;;;;;;;3.25;1.30;;;;;;;20.27;72.20;100838.38;2097364;28;20049;-74
2022/09/27 04:36:59;;;;;;;3.42;1.40;;;;;;;20.40;72.43;100836.31;2089587;28;20139;-74
2022/09/27 04:38:36;;;;;;;1.98;1.10;;;;;;;20.53;72.03;100838.69;2088237;28;20049;-74
2022/09/27 04:40:00;;;;;;;1.52;1.27;;;;;;;20.64;72.06;100841.97;2087171;28;20464;-74
2022/09/27 04:41:24;;;;;;;2.90;1.52;;;;;;;20.76;71.67;100837.22;2084718;28;20045;-74
2022/09/27 04:42:48;;;;;;;2.30;1.25;;;;;;;20.86;71.47;100836.06;2084776;28;20035;-74
2022/09/27 04:44:11;;;;;;;2.60;1.10;;;;;;;20.96;70.99;100843.84;2084274;28;20045;-75
2022/09/27 04:45:35;;;;;;;1.88;1.05;;;;;;;21.06;70.70;100839.13;2085046;28;20131;-75
2022/09/27 04:46:57;;;;;;;2.03;1.20;;;;;;;21.15;70.47;100846.03;2092302;28;20139;-74
2022/09/27 04:48:19;;;;;;;2.38;1.30;;;;;;;21.23;69.94;100850.31;2086820;28;20057;-74
2022/09/27 04:49:43;;;;;;;3.47;1.42;;;;;;;21.33;69.67;100846.44;2084187;28;20044;-74
2022/09/27 04:51:06;;;;;;;3.75;1.20;;;;;;;21.43;69.40;100852.47;2084397;28;20044;-74
2022/09/27 04:52:30;;;;;;;1.15;1.00;;;;;;;21.52;69.05;100840.59;2088265;28;20138;-74
2022/09/27 04:53:56;;;;;;;3.08;1.05;;;;;;;21.61;68.69;100851.94;2085823;28;20457;-75
2022/09/27 04:55:23;;;;;;;0.80;0.80;;;;;;;21.69;68.54;100855.31;2087330;28;20090;-76
2022/09/27 04:56:47;;;;;;;2.22;1.10;;;;;;;21.77;68.26;100852.41;2077509;28;20365;-75
2022/09/27 04:58:12;;;;;;;3.15;0.95;;;;;;;21.88;67.79;100844.91;2086781;28;20085;-75
2022/09/27 04:59:34;;;;;;;1.63;0.77;;;;;;;21.97;67.22;100849.16;2093644;28;20396;-74
2022/09/27 05:00:56;;;;;;;1.92;1.05;;;;;;;22.07;67.04;100853.31;2090737;28;20045;-74
2022/09/27 05:02:44;;;;;;;2.78;0.82;;;;;;;22.15;66.63;100844.09;2092577;28;20055;-74
2022/09/27 05:04:28;;;;;;;2.47;1.00;;;;;;;22.26;66.29;100852.72;2104831;28;20126;-75
2022/09/27 05:05:50;;;;;;;4.78;1.20;;;;;;;22.37;66.02;100856.91;2090693;28;20045;-74
2022/09/27 05:07:13;;;;;;;2.58;0.70;;;;;;;22.44;65.88;100853.09;2085562;28;20076;-74
2022/09/27 05:08:40;;;;;;;0.60;0.55;;;;;;;22.51;65.65;100854.66;2095079;28;20032;-75
2022/09/27 05:10:31;;;;;;;1.10;0.65;;;;;;;22.63;65.25;100846.19;2099015;28;20056;-74
2022/09/27 05:11:54;;;;;;;2.17;1.00;;;;;;;22.68;64.99;100846.91;2088076;28;20370;-74
2022/09/27 05:13:34;;;;;;;2.20;0.88;;;;;;;22.78;65.00;100848.38;2098069;28;20051;-75
2022/09/27 05:14:57;;;;;;;1.30;0.65;;;;;;;22.87;64.63;100834.63;2088288;28;20041;-75
2022/09/27 05:16:36;;;;;;;1.13;0.80;;;;;;;22.97;63.94;100848.66;2097904;28;20488;-74
2022/09/27 05:18:17;;;;;;;1.88;0.70;;;;;;;23.04;63.70;100845.69;2099102;28;20044;-75
2022/09/27 05:19:57;;;;;;;1.77;0.77;;;;;;;23.12;63.37;100840.03;2098787;28;20040;-74
2022/09/27 05:21:33;;;;;;;2.35;0.95;;;;;;;23.20;63.02;100843.34;2089550;28;20469;-75
2022/09/27 05:22:54;;;;;;;1.65;0.60;;;;;;;23.26;62.78;100850.34;2093980;28;20056;-74
2022/09/27 05:24:17;;;;;;;1.60;0.77;;;;;;;23.34;62.88;100848.25;2087932;28;20037;-75
2022/09/27 05:25:41;;;;;;;1.83;0.93;;;;;;;23.42;62.44;100851.56;2096287;28;20496;-74
2022/09/27 05:27:07;;;;;;;3.60;1.05;;;;;;;23.46;62.19;100847.81;2096343;28;20080;-75
2022/09/27 05:28:30;;;;;;;2.35;0.85;;;;;;;23.55;61.87;100849.34;2096622;28;20063;-75
2022/09/27 05:29:52;;;;;;;0.80;0.65;;;;;;;23.61;61.61;100843.72;2087972;28;20048;-75
2022/09/27 05:31:21;;;;;;;1.35;0.60;;;;;;;23.64;61.35;100848.97;2086963;28;20053;-75
2022/09/27 05:32:46;;;;;;;1.23;0.70;;;;;;;23.67;60.64;100835.41;2085448;28;20157;-75
2022/09/27 05:34:22;;;;;;;2.42;0.75;;;;;;;23.70;60.93;100844.25;2106048;28;20316;-74
2022/09/27 05:35:54;;;;;;;2.92;1.00;;;;;;;23.76;60.85;100846.72;2090628;28;20044;-74
2022/09/27 05:37:18;;;;;;;0.90;0.60;;;;;;;23.84;60.78;100847.31;2086345;28;20497;-75
2022/09/27 05:38:42;;;;;;;1.70;0.60;;;;;;;23.93;60.42;100845.22;2085154;28;20060;-74
2022/09/27 05:40:05;;;;;;;2.95;0.98;;;;;;;23.98;59.80;100848.59;2085802;28;20106;-75
2022/09/27 05:41:31;;;;;;;1.27;0.73;;;;;;;24.06;59.67;100854.59;2088165;28;20041;-75
2022/09/27 05:42:55;;;;;;;0.73;0.57;;;;;;;24.11;59.87;100857.97;2096701;28;20047;-74
2022/09/27 05:44:18;;;;;;;0.95;0.60;;;;;;;24.21;59.82;100856.75;2087729;28;20068;-75
2022/09/27 05:45:52;;;;;;;1.30;0.60;;;;;;;24.31;59.25;100852.72;2087810;28;20142;-75
2022/09/27 05:47:16;;;;;;;0.75;0.50;;;;;;;24.37;58.89;100860.56;2094181;28;20054;-76
2022/09/27 05:48:39;;;;;;;1.50;0.63;;;;;;;24.42;58.28;100858.56;2090245;28;20044;-74
2022/09/27 05:50:02;;;;;;;3.15;0.75;;;;;;;24.45;58.33;100860.28;2093768;28;20415;-76
2022/09/27 05:51:25;;;;;;;1.27;0.65;;;;;;;24.52;58.19;100868.06;2087673;28;20491;-75
2022/09/27 05:52:46;;;;;;;3.92;0.75;;;;;;;24.59;58.25;100860.59;2093568;28;20150;-75
2022/09/27 05:54:10;;;;;;;0.75;0.60;;;;;;;24.67;57.70;100866.56;2090253;28;20103;-76
2022/09/27 05:55:33;;;;;;;2.47;0.80;;;;;;;24.76;57.67;100859.91;2085382;28;20129;-74
2022/09/27 05:56:58;;;;;;;2.30;0.63;;;;;;;24.88;57.30;100859.38;2085333;28;20428;-75
2022/09/27 05:58:41;;;;;;;1.55;0.75;;;;;;;24.92;56.87;100851.13;2090206;28;20076;-75
2022/09/27 06:00:13;;;;;;;2.42;0.70;;;;;;;24.99;56.74;100868.84;2096047;28;20127;-76
2022/09/27 06:01:36;;;;;;;1.48;0.38;;;;;;;25.07;56.34;100871.22;2096047;28;20098;-75
2022/09/27 06:03:31;;;;;;;1.27;0.77;;;;;;;25.17;55.91;100866.28;2098523;28;20052;-76
2022/09/27 06:05:12;;;;;;;1.10;0.50;;;;;;;25.23;55.93;100884.94;2098611;28;20048;-74
2022/09/27 06:06:53;;;;;;;0.50;0.30;;;;;;;25.35;55.68;100871.78;2098583;28;20045;-75
2022/09/27 06:08:16;;;;;;;1.60;0.47;;;;;;;25.45;55.45;100874.09;2087614;28;20143;-75
2022/09/27 06:09:43;;;;;;;1.15;0.60;;;;;;;25.54;55.34;100879.94;2096462;28;20043;-75
2022/09/27 06:11:11;;;;;;;1.38;0.60;;;;;;;25.62;54.88;100875.13;2088005;28;20044;-75
2022/09/27 06:12:34;;;;;;;1.30;0.60;;;;;;;25.71;54.75;100876.53;2085788;28;20041;-76
2022/09/27 06:13:58;;;;;;;2.67;0.70;;;;;;;25.74;54.41;100885.38;2093556;28;20131;-75
2022/09/27 06:15:25;;;;;;;0.70;0.40;;;;;;;25.82;54.04;100881.47;2088485;28;20057;-75
2022/09/27 06:16:48;;;;;;;;;;;;;;;25.84;53.67;100875.03;2085493;28;20052;-75
2022/09/27 06:18:14;;;;;;;1.65;0.80;;;;;;;25.90;53.47;100882.00;2084944;28;20015;-76
2022/09/27 06:19:38;;;;;;;1.52;0.60;;;;;;;25.95;53.35;100875.41;2094518;28;20132;-74
2022/09/27 06:21:01;;;;;;;1.05;0.70;;;;;;;26.05;52.98;100868.66;2087266;28;20053;-75
2022/09/27 06:22:24;;;;;;;3.03;0.65;;;;;;;26.08;52.33;100867.59;2085144;28;20044;-75
2022/09/27 06:23:55;;;;;;;2.70;0.77;;;;;;;26.12;52.43;100874.66;2086864;28;20037;-74
2022/09/27 06:25:38;;;;;;;0.95;0.60;;;;;;;26.19;52.31;100876.97;2087027;28;20051;-75
2022/09/27 06:27:19;;;;;;;1.63;0.52;;;;;;;26.30;52.30;100879.22;2106686;28;20503;-75
2022/09/27 06:29:01;;;;;;;2.90;0.68;;;;;;;26.44;52.03;100884.88;2098224;28;20059;-76
2022/09/27 06:30:22;;;;;;;1.55;0.40;;;;;;;26.53;51.85;100887.09;2095677;28;20048;-74
2022/09/27 06:31:49;;;;;;;2.05;0.40;;;;;;;26.62;51.67;100880.38;2090116;28;20099;-74
2022/09/27 06:33:24;;;;;;;1.42;0.70;;;;;;;26.69;51.15;100883.66;2096755;28;20485;-75
2022/09/27 06:34:48;;;;;;;0.70;0.38;;;;;;;26.72;51.10;100889.78;2087727;28;20082;-75
2022/09/27 06:36:11;;;;;;;1.13;0.50;;;;;;;26.81;51.04;100885.75;2084998;28;20064;-75
2022/09/27 06:37:36;;;;;;;0.57;0.45;;;;;;;26.91;50.47;100877.13;2087266;28;20389;-75
2022/09/27 06:39:00;;;;;;;1.75;1.35;;;;;;;26.96;50.61;100885.91;2087490;28;20049;-75
2022/09/27 06:40:30;;;;;;;2.13;0.70;;;;;;;26.98;50.09;100873.16;2087022;28;20075;-74
2022/09/27 06:42:12;;;;;;;1.08;0.57;;;;;;;26.98;50.28;100893.94;2090015;28;20420;-76
2022/09/27 06:44:02;;;;;;;1.40;0.50;;;;;;;27.05;50.12;100894.50;2090106;28;20044;-75
2022/09/27 06:45:30;;;;;;;1.30;0.70;;;;;;;27.11;50.22;100888.81;2094352;28;20055;-74
2022/09/27 06:47:11;;;;;;;2.72;0.70;;;;;;;27.16;49.72;100890.34;2098265;28;20095;-75
2022/09/27 06:48:49;;;;;;;1.55;0.85;;;;;;;27.20;49.71;100899.16;2097664;28;20109;-75
2022/09/27 06:50:14;;;;;;;1.15;0.60;;;;;;;27.28;49.73;100891.53;2089986;28;20053;-74
2022/09/27 06:51:39;;;;;;;2.80;0.50;;;;;;;27.41;49.76;100886.34;2085385;28;20040;-76
2022/09/27 06:53:03;;;;;;;2.63;0.75;;;;;;;27.52;49.26;100878.53;2087795;28;20156;-75
2022/09/27 06:54:26;;;;;;;0.55;0.50;;;;;;;27.60;49.07;100879.91;2085043;28;20083;-75
2022/09/27 06:55:51;;;;;;;2.58;0.60;;;;;;;27.65;49.05;100896.81;2084818;28;20451;-74
2022/09/27 07:00:22;;;;;;;2.10;0.60;;;;;;;27.71;48.63;100891.06;2076995;28;20386;-74
2022/09/27 07:01:09;;;;;;;0.85;0.45;;;;;;;27.83;48.31;100904.94;2106597;28;20040;-74